AAL207 CYVR-PAJN
Flight info
| Callsign | AAL207 |
|---|---|
| Flight time | N/A |
| Altitude | 36000 |
| Route | FASBO DCT TRENA DCT YYD DCT RIBIT DCT SSR |
| Aircraft | B738/M-SDE2E3FGHIRWXY/LB1 |
Departure
| Time | N/A |
|---|---|
| Airport | Vancouver International Airport (CYVR) |
Arrival
| Time | 2026-04-27 20:51 |
|---|---|
| Airport | Juneau International Airport (PAJN) |
| Time | Latitude | Longitude | Altitude | Speed | Heading |
|---|---|---|---|---|---|
| 2026-04-27 18:59 | 49.75145 | -123.68038 | 23280 ft | 364 kts | 334° |
| 2026-04-27 18:59 | 49.77407 | -123.69840 | 23827 ft | 367 kts | 334° |
| 2026-04-27 18:59 | 49.79681 | -123.71657 | 24374 ft | 369 kts | 334° |
| 2026-04-27 18:59 | 49.81967 | -123.73488 | 24936 ft | 370 kts | 334° |
| 2026-04-27 19:00 | 49.84255 | -123.75322 | 25493 ft | 371 kts | 334° |
| 2026-04-27 19:00 | 49.86525 | -123.77145 | 26013 ft | 372 kts | 334° |
| 2026-04-27 19:00 | 49.88826 | -123.78996 | 26543 ft | 372 kts | 335° |
| 2026-04-27 19:00 | 49.91133 | -123.80854 | 27056 ft | 373 kts | 335° |
| 2026-04-27 19:01 | 49.93436 | -123.82703 | 27568 ft | 373 kts | 335° |
| 2026-04-27 19:01 | 49.95745 | -123.84564 | 28042 ft | 374 kts | 336° |
| 2026-04-27 19:01 | 49.98062 | -123.86430 | 28465 ft | 376 kts | 336° |
| 2026-04-27 19:01 | 50.00383 | -123.88313 | 28915 ft | 376 kts | 336° |
| 2026-04-27 19:02 | 50.02700 | -123.90195 | 29394 ft | 376 kts | 336° |
| 2026-04-27 19:02 | 50.05030 | -123.92082 | 29766 ft | 378 kts | 336° |
| 2026-04-27 19:02 | 50.07372 | -123.93983 | 30135 ft | 380 kts | 336° |
| 2026-04-27 19:02 | 50.09693 | -123.95867 | 30474 ft | 382 kts | 336° |
| 2026-04-27 19:03 | 50.12049 | -123.97787 | 30790 ft | 384 kts | 336° |
| 2026-04-27 19:03 | 50.14431 | -123.99724 | 31078 ft | 386 kts | 336° |
| 2026-04-27 19:03 | 50.16824 | -124.01663 | 31408 ft | 388 kts | 336° |
| 2026-04-27 19:03 | 50.18413 | -124.02947 | 31617 ft | 389 kts | 336° |
| 2026-04-27 19:04 | 50.21641 | -124.05577 | 31995 ft | 392 kts | 336° |
| 2026-04-27 19:04 | 50.24062 | -124.07562 | 32271 ft | 394 kts | 336° |
| 2026-04-27 19:04 | 50.26502 | -124.09565 | 32514 ft | 397 kts | 336° |
| 2026-04-27 19:04 | 50.28956 | -124.11584 | 32773 ft | 399 kts | 336° |
| 2026-04-27 19:05 | 50.31417 | -124.13612 | 33035 ft | 401 kts | 336° |
| 2026-04-27 19:05 | 50.33889 | -124.15651 | 33308 ft | 402 kts | 336° |
| 2026-04-27 19:05 | 50.36366 | -124.17697 | 33557 ft | 403 kts | 336° |
| 2026-04-27 19:05 | 50.38828 | -124.19731 | 33779 ft | 405 kts | 336° |
| 2026-04-27 19:06 | 50.41326 | -124.21792 | 33999 ft | 407 kts | 336° |
| 2026-04-27 19:06 | 50.43882 | -124.23685 | 34224 ft | 406 kts | 341° |
| 2026-04-27 19:06 | 50.46534 | -124.25221 | 34372 ft | 407 kts | 343° |
| 2026-04-27 19:06 | 50.49224 | -124.26700 | 34529 ft | 409 kts | 343° |
| 2026-04-27 19:07 | 50.51909 | -124.28174 | 34708 ft | 410 kts | 343° |
| 2026-04-27 19:07 | 50.54607 | -124.29658 | 34819 ft | 412 kts | 343° |
| 2026-04-27 19:07 | 50.57313 | -124.31149 | 34963 ft | 412 kts | 343° |
| 2026-04-27 19:07 | 50.60029 | -124.32648 | 35079 ft | 414 kts | 343° |
| 2026-04-27 19:08 | 50.62752 | -124.34152 | 35211 ft | 414 kts | 343° |
| 2026-04-27 19:08 | 50.65468 | -124.35657 | 35372 ft | 414 kts | 343° |
| 2026-04-27 19:08 | 50.68191 | -124.37164 | 35513 ft | 415 kts | 343° |
| 2026-04-27 19:08 | 50.70876 | -124.38653 | 35673 ft | 414 kts | 343° |
| 2026-04-27 19:09 | 50.73594 | -124.40163 | 35831 ft | 414 kts | 343° |
| 2026-04-27 19:09 | 50.76321 | -124.41676 | 35950 ft | 415 kts | 343° |
| 2026-04-27 19:09 | 50.79055 | -124.43179 | 36018 ft | 416 kts | 343° |
| 2026-04-27 19:10 | 50.84459 | -124.46166 | 36021 ft | 403 kts | 343° |
| 2026-04-27 19:10 | 50.89668 | -124.49056 | 36021 ft | 391 kts | 343° |
| 2026-04-27 19:11 | 50.94740 | -124.51880 | 36030 ft | 388 kts | 343° |
| 2026-04-27 19:11 | 50.99844 | -124.54732 | 36039 ft | 388 kts | 343° |
| 2026-04-27 19:12 | 51.04949 | -124.57592 | 36038 ft | 388 kts | 343° |
| 2026-04-27 19:12 | 51.10054 | -124.60460 | 36036 ft | 388 kts | 343° |
| 2026-04-27 19:13 | 51.15107 | -124.63305 | 36035 ft | 387 kts | 343° |
| 2026-04-27 19:13 | 51.20185 | -124.66172 | 36034 ft | 387 kts | 343° |
| 2026-04-27 19:14 | 51.25274 | -124.69052 | 36033 ft | 387 kts | 343° |
| 2026-04-27 19:14 | 51.30354 | -124.71934 | 36033 ft | 387 kts | 343° |
| 2026-04-27 19:15 | 51.35435 | -124.74823 | 36034 ft | 387 kts | 343° |
| 2026-04-27 19:15 | 51.40486 | -124.77701 | 36032 ft | 387 kts | 343° |
| 2026-04-27 19:16 | 51.45553 | -124.80596 | 36031 ft | 386 kts | 343° |
| 2026-04-27 19:16 | 51.50620 | -124.83498 | 36030 ft | 386 kts | 343° |
| 2026-04-27 19:17 | 51.55678 | -124.86401 | 36029 ft | 386 kts | 343° |
| 2026-04-27 19:17 | 51.60702 | -124.89292 | 36027 ft | 386 kts | 343° |
| 2026-04-27 19:18 | 51.65760 | -124.92209 | 36026 ft | 386 kts | 342° |
| 2026-04-27 19:18 | 51.70812 | -124.95130 | 36025 ft | 385 kts | 342° |
| 2026-04-27 19:19 | 51.75850 | -124.98049 | 36024 ft | 384 kts | 342° |
| 2026-04-27 19:19 | 51.80894 | -125.00979 | 36024 ft | 385 kts | 342° |
| 2026-04-27 19:20 | 51.85084 | -125.03418 | 36023 ft | 385 kts | 342° |
| 2026-04-27 19:20 | 51.90944 | -125.06837 | 36022 ft | 384 kts | 342° |
| 2026-04-27 19:21 | 51.95976 | -125.09781 | 36021 ft | 384 kts | 342° |
| 2026-04-27 19:21 | 52.00991 | -125.12722 | 36021 ft | 383 kts | 342° |
| 2026-04-27 19:22 | 52.06004 | -125.15668 | 36020 ft | 383 kts | 342° |
| 2026-04-27 19:22 | 52.11015 | -125.18621 | 36020 ft | 383 kts | 342° |
| 2026-04-27 19:23 | 52.16028 | -125.21582 | 36017 ft | 383 kts | 342° |
| 2026-04-27 19:23 | 52.21024 | -125.24540 | 36011 ft | 381 kts | 342° |
| 2026-04-27 19:24 | 52.25977 | -125.27480 | 36013 ft | 381 kts | 342° |
| 2026-04-27 19:24 | 52.30969 | -125.30453 | 36018 ft | 381 kts | 342° |
| 2026-04-27 19:25 | 52.35962 | -125.33428 | 36017 ft | 381 kts | 342° |
| 2026-04-27 19:25 | 52.40954 | -125.36412 | 36009 ft | 381 kts | 342° |
| 2026-04-27 19:26 | 52.45940 | -125.39399 | 36001 ft | 381 kts | 341° |
| 2026-04-27 19:26 | 52.50924 | -125.42393 | 36000 ft | 381 kts | 341° |
| 2026-04-27 19:27 | 52.55877 | -125.45375 | 36000 ft | 381 kts | 341° |
| 2026-04-27 19:27 | 52.60863 | -125.48385 | 36000 ft | 381 kts | 341° |
| 2026-04-27 19:28 | 52.65847 | -125.51403 | 36000 ft | 381 kts | 341° |
| 2026-04-27 19:28 | 52.70829 | -125.54422 | 35999 ft | 381 kts | 341° |
| 2026-04-27 19:29 | 52.75807 | -125.57449 | 35998 ft | 381 kts | 341° |
| 2026-04-27 19:29 | 52.80785 | -125.60483 | 35997 ft | 381 kts | 341° |
| 2026-04-27 19:30 | 52.85764 | -125.63525 | 35996 ft | 381 kts | 341° |
| 2026-04-27 19:30 | 52.90742 | -125.66574 | 35995 ft | 382 kts | 341° |
| 2026-04-27 19:31 | 52.95701 | -125.69619 | 35995 ft | 382 kts | 341° |
| 2026-04-27 19:31 | 53.00700 | -125.72696 | 35993 ft | 382 kts | 341° |
| 2026-04-27 19:32 | 53.05688 | -125.75773 | 35991 ft | 382 kts | 341° |
| 2026-04-27 19:32 | 53.09831 | -125.78336 | 35990 ft | 382 kts | 341° |
| 2026-04-27 19:33 | 53.14818 | -125.81427 | 35988 ft | 382 kts | 340° |
| 2026-04-27 19:33 | 53.19807 | -125.84527 | 35986 ft | 382 kts | 340° |
| 2026-04-27 19:34 | 53.24760 | -125.87613 | 35984 ft | 382 kts | 340° |
| 2026-04-27 19:34 | 53.29752 | -125.90730 | 35979 ft | 383 kts | 340° |
| 2026-04-27 19:35 | 53.34758 | -125.93864 | 35972 ft | 383 kts | 340° |
| 2026-04-27 19:35 | 53.39745 | -125.96994 | 35969 ft | 383 kts | 340° |
| 2026-04-27 19:36 | 53.44740 | -126.00137 | 35967 ft | 383 kts | 340° |
| 2026-04-27 19:36 | 53.49702 | -126.03266 | 35964 ft | 383 kts | 340° |
| 2026-04-27 19:37 | 53.54699 | -126.06427 | 35962 ft | 383 kts | 340° |
| 2026-04-27 19:37 | 53.59694 | -126.09594 | 35960 ft | 383 kts | 340° |
| 2026-04-27 19:38 | 53.64682 | -126.12764 | 35957 ft | 383 kts | 339° |
| 2026-04-27 19:38 | 53.69641 | -126.15924 | 35954 ft | 383 kts | 339° |
| 2026-04-27 19:39 | 53.74627 | -126.19109 | 35952 ft | 383 kts | 339° |
| 2026-04-27 19:39 | 53.79616 | -126.22305 | 35949 ft | 383 kts | 339° |
| 2026-04-27 19:40 | 53.84593 | -126.25501 | 35944 ft | 383 kts | 339° |
| 2026-04-27 19:40 | 53.89576 | -126.28709 | 35941 ft | 383 kts | 339° |
| 2026-04-27 19:41 | 53.94527 | -126.31908 | 35939 ft | 383 kts | 339° |
| 2026-04-27 19:41 | 53.99510 | -126.35129 | 35935 ft | 383 kts | 339° |
| 2026-04-27 19:42 | 54.04492 | -126.38361 | 35933 ft | 383 kts | 339° |
| 2026-04-27 19:42 | 54.09473 | -126.41601 | 35930 ft | 383 kts | 339° |
| 2026-04-27 19:43 | 54.14452 | -126.44848 | 35928 ft | 383 kts | 339° |
| 2026-04-27 19:43 | 54.19411 | -126.48062 | 35926 ft | 383 kts | 339° |
| 2026-04-27 19:44 | 54.24404 | -126.51331 | 35924 ft | 384 kts | 339° |
| 2026-04-27 19:44 | 54.29399 | -126.54621 | 35922 ft | 384 kts | 339° |
| 2026-04-27 19:45 | 54.34394 | -126.57924 | 35922 ft | 384 kts | 339° |
| 2026-04-27 19:45 | 54.39356 | -126.61215 | 35924 ft | 385 kts | 339° |
| 2026-04-27 19:46 | 54.44164 | -126.65224 | 35921 ft | 385 kts | 325° |
| 2026-04-27 19:46 | 54.48048 | -126.71638 | 35920 ft | 388 kts | 315° |
| 2026-04-27 19:47 | 54.51541 | -126.78742 | 35924 ft | 389 kts | 313° |
| 2026-04-27 19:47 | 54.54958 | -126.85910 | 35921 ft | 390 kts | 313° |
| 2026-04-27 19:48 | 54.58381 | -126.93170 | 35919 ft | 390 kts | 313° |
| 2026-04-27 19:48 | 54.61795 | -127.00456 | 35917 ft | 391 kts | 312° |
| 2026-04-27 19:49 | 54.65206 | -127.07778 | 35915 ft | 391 kts | 312° |
| 2026-04-27 19:49 | 54.68628 | -127.15071 | 35913 ft | 390 kts | 313° |
| 2026-04-27 19:50 | 54.72030 | -127.22308 | 35912 ft | 390 kts | 312° |
| 2026-04-27 19:50 | 54.75443 | -127.29620 | 35912 ft | 390 kts | 312° |
| 2026-04-27 19:51 | 54.78855 | -127.36975 | 35912 ft | 391 kts | 312° |
| 2026-04-27 19:51 | 54.82257 | -127.44339 | 35914 ft | 391 kts | 312° |
| 2026-04-27 19:52 | 54.85654 | -127.51723 | 35917 ft | 391 kts | 312° |
| 2026-04-27 19:52 | 54.89045 | -127.59121 | 35921 ft | 391 kts | 312° |
| 2026-04-27 19:53 | 54.94111 | -127.70218 | 35928 ft | 391 kts | 311° |
| 2026-04-27 19:53 | 54.97491 | -127.77652 | 35934 ft | 391 kts | 311° |
| 2026-04-27 19:54 | 55.00866 | -127.85097 | 35940 ft | 391 kts | 311° |
| 2026-04-27 19:54 | 55.04232 | -127.92547 | 35946 ft | 391 kts | 311° |
| 2026-04-27 19:55 | 55.07602 | -128.00027 | 35951 ft | 392 kts | 311° |
| 2026-04-27 19:55 | 55.10954 | -128.07489 | 35956 ft | 392 kts | 310° |
| 2026-04-27 19:56 | 55.14316 | -128.14999 | 35961 ft | 392 kts | 310° |
| 2026-04-27 19:56 | 55.17670 | -128.22513 | 35965 ft | 392 kts | 310° |
| 2026-04-27 19:57 | 55.21022 | -128.30046 | 35969 ft | 392 kts | 310° |
| 2026-04-27 19:57 | 55.24372 | -128.37598 | 35974 ft | 392 kts | 310° |
| 2026-04-27 19:58 | 55.27720 | -128.45168 | 35979 ft | 393 kts | 310° |
| 2026-04-27 19:58 | 55.31047 | -128.52714 | 35983 ft | 393 kts | 310° |
| 2026-04-27 19:59 | 55.34391 | -128.60323 | 35996 ft | 393 kts | 310° |
| 2026-04-27 19:59 | 55.37729 | -128.67940 | 36022 ft | 393 kts | 310° |
| 2026-04-27 20:00 | 55.41037 | -128.75514 | 36035 ft | 393 kts | 310° |
| 2026-04-27 20:00 | 55.44363 | -128.83152 | 36043 ft | 393 kts | 310° |
| 2026-04-27 20:01 | 55.47687 | -128.90809 | 36046 ft | 392 kts | 309° |
| 2026-04-27 20:01 | 55.51004 | -128.98475 | 36048 ft | 393 kts | 309° |
| 2026-04-27 20:02 | 55.54303 | -129.06121 | 36047 ft | 393 kts | 309° |
| 2026-04-27 20:02 | 55.57617 | -129.13829 | 36052 ft | 393 kts | 309° |
| 2026-04-27 20:03 | 55.60924 | -129.21542 | 36053 ft | 393 kts | 309° |
| 2026-04-27 20:03 | 55.64221 | -129.29259 | 36055 ft | 393 kts | 309° |
| 2026-04-27 20:04 | 55.67517 | -129.36996 | 36056 ft | 393 kts | 309° |
| 2026-04-27 20:04 | 55.70259 | -129.43452 | 36057 ft | 393 kts | 309° |
| 2026-04-27 20:05 | 55.74104 | -129.52431 | 36058 ft | 393 kts | 309° |
| 2026-04-27 20:05 | 55.77390 | -129.60196 | 36058 ft | 393 kts | 308° |
| 2026-04-27 20:06 | 55.80644 | -129.67959 | 36059 ft | 394 kts | 308° |
| 2026-04-27 20:06 | 55.83906 | -129.75782 | 36059 ft | 393 kts | 308° |
| 2026-04-27 20:07 | 55.87157 | -129.83599 | 36060 ft | 393 kts | 308° |
| 2026-04-27 20:07 | 55.90408 | -129.91424 | 36060 ft | 393 kts | 308° |
| 2026-04-27 20:08 | 55.93838 | -129.98930 | 36060 ft | 392 kts | 311° |
| 2026-04-27 20:08 | 55.97378 | -130.06365 | 36060 ft | 392 kts | 311° |
| 2026-04-27 20:09 | 56.00900 | -130.13831 | 36061 ft | 392 kts | 311° |
| 2026-04-27 20:09 | 56.04406 | -130.21314 | 36062 ft | 392 kts | 311° |
| 2026-04-27 20:10 | 56.07907 | -130.28827 | 36064 ft | 392 kts | 310° |
| 2026-04-27 20:10 | 56.11375 | -130.36307 | 36066 ft | 392 kts | 310° |
| 2026-04-27 20:11 | 56.14894 | -130.43818 | 36069 ft | 393 kts | 311° |
| 2026-04-27 20:11 | 56.18426 | -130.51355 | 36072 ft | 393 kts | 310° |
| 2026-04-27 20:12 | 56.21340 | -130.57617 | 36074 ft | 393 kts | 310° |
| 2026-04-27 20:12 | 56.25418 | -130.66428 | 36078 ft | 393 kts | 310° |
| 2026-04-27 20:13 | 56.28911 | -130.74013 | 36082 ft | 393 kts | 310° |
| 2026-04-27 20:13 | 56.32399 | -130.81620 | 36085 ft | 394 kts | 310° |
| 2026-04-27 20:14 | 56.35865 | -130.89208 | 36089 ft | 394 kts | 309° |
| 2026-04-27 20:14 | 56.39341 | -130.96843 | 36093 ft | 394 kts | 309° |
| 2026-04-27 20:15 | 56.42815 | -131.04501 | 36097 ft | 395 kts | 309° |
| 2026-04-27 20:15 | 56.46294 | -131.12195 | 36101 ft | 395 kts | 309° |
| 2026-04-27 20:16 | 56.49772 | -131.19911 | 36105 ft | 395 kts | 309° |
| 2026-04-27 20:16 | 56.53222 | -131.27593 | 36114 ft | 395 kts | 308° |
| 2026-04-27 20:17 | 56.56689 | -131.35334 | 36118 ft | 395 kts | 308° |
| 2026-04-27 20:17 | 56.59564 | -131.41775 | 36121 ft | 395 kts | 308° |
| 2026-04-27 20:18 | 56.63608 | -131.50863 | 36124 ft | 395 kts | 308° |
| 2026-04-27 20:18 | 56.67042 | -131.58606 | 36127 ft | 395 kts | 308° |
| 2026-04-27 20:19 | 56.70491 | -131.66414 | 36134 ft | 395 kts | 308° |
| 2026-04-27 20:19 | 56.73937 | -131.74230 | 36135 ft | 395 kts | 308° |
| 2026-04-27 20:20 | 56.77374 | -131.82058 | 36136 ft | 395 kts | 308° |
| 2026-04-27 20:20 | 56.80810 | -131.89907 | 36136 ft | 395 kts | 308° |
| 2026-04-27 20:21 | 56.84215 | -131.97712 | 36137 ft | 395 kts | 308° |
| 2026-04-27 20:21 | 56.87641 | -132.05584 | 36138 ft | 395 kts | 307° |
| 2026-04-27 20:22 | 56.91062 | -132.13480 | 36138 ft | 395 kts | 307° |
| 2026-04-27 20:22 | 56.93903 | -132.20055 | 36139 ft | 396 kts | 307° |
| 2026-04-27 20:23 | 56.97314 | -132.27980 | 36140 ft | 396 kts | 307° |
| 2026-04-27 20:23 | 57.00726 | -132.35921 | 36132 ft | 396 kts | 307° |
| 2026-04-27 20:24 | 57.04130 | -132.43874 | 36139 ft | 396 kts | 307° |
| 2026-04-27 20:24 | 57.07505 | -132.51786 | 36143 ft | 396 kts | 307° |
| 2026-04-27 20:25 | 57.10903 | -132.59778 | 36143 ft | 396 kts | 306° |
| 2026-04-27 20:25 | 57.14296 | -132.67786 | 36143 ft | 396 kts | 306° |
| 2026-04-27 20:26 | 57.17663 | -132.75759 | 36143 ft | 396 kts | 306° |
| 2026-04-27 20:26 | 57.21049 | -132.83802 | 36146 ft | 397 kts | 306° |
| 2026-04-27 20:27 | 57.24431 | -132.91864 | 36146 ft | 397 kts | 306° |
| 2026-04-27 20:27 | 57.27813 | -132.99952 | 36151 ft | 396 kts | 306° |
| 2026-04-27 20:28 | 57.31173 | -133.08016 | 36160 ft | 396 kts | 305° |
| 2026-04-27 20:28 | 57.33969 | -133.14746 | 36106 ft | 399 kts | 305° |
| 2026-04-27 20:29 | 57.36216 | -133.20169 | 35772 ft | 398 kts | 305° |
| 2026-04-27 20:29 | 57.37894 | -133.24225 | 35518 ft | 395 kts | 305° |
| 2026-04-27 20:29 | 57.39557 | -133.28255 | 35078 ft | 390 kts | 305° |
| 2026-04-27 20:29 | 57.41203 | -133.32247 | 34456 ft | 389 kts | 304° |
| 2026-04-27 20:30 | 57.42853 | -133.36257 | 33725 ft | 391 kts | 304° |
| 2026-04-27 20:30 | 57.44516 | -133.40309 | 32892 ft | 396 kts | 304° |
| 2026-04-27 20:30 | 57.46195 | -133.44407 | 31978 ft | 402 kts | 304° |
| 2026-04-27 20:30 | 57.47879 | -133.48523 | 31037 ft | 408 kts | 305° |
| 2026-04-27 20:31 | 57.49607 | -133.52754 | 30080 ft | 414 kts | 305° |
| 2026-04-27 20:31 | 57.51359 | -133.57050 | 29123 ft | 420 kts | 305° |
| 2026-04-27 20:31 | 57.53127 | -133.61398 | 28186 ft | 424 kts | 305° |
| 2026-04-27 20:31 | 57.54911 | -133.65782 | 27514 ft | 422 kts | 305° |
| 2026-04-27 20:32 | 57.56671 | -133.70120 | 26919 ft | 418 kts | 305° |
| 2026-04-27 20:32 | 57.58426 | -133.74452 | 26080 ft | 419 kts | 305° |
| 2026-04-27 20:32 | 57.60185 | -133.78803 | 25287 ft | 420 kts | 305° |
| 2026-04-27 20:32 | 57.61936 | -133.83144 | 24593 ft | 418 kts | 305° |
| 2026-04-27 20:33 | 57.63686 | -133.87488 | 23847 ft | 417 kts | 305° |
| 2026-04-27 20:33 | 57.65420 | -133.91806 | 23176 ft | 414 kts | 305° |
| 2026-04-27 20:33 | 57.67141 | -133.96094 | 22553 ft | 410 kts | 305° |
| 2026-04-27 20:33 | 57.68824 | -134.00293 | 21945 ft | 406 kts | 305° |
| 2026-04-27 20:34 | 57.70510 | -134.04508 | 21320 ft | 403 kts | 305° |
| 2026-04-27 20:34 | 57.72185 | -134.08703 | 20701 ft | 400 kts | 305° |
| 2026-04-27 20:34 | 57.73838 | -134.12853 | 20100 ft | 396 kts | 306° |
| 2026-04-27 20:34 | 57.75479 | -134.16976 | 19491 ft | 393 kts | 306° |
| 2026-04-27 20:35 | 57.77103 | -134.21065 | 18890 ft | 389 kts | 306° |
| 2026-04-27 20:35 | 57.78710 | -134.25119 | 18296 ft | 386 kts | 306° |
| 2026-04-27 20:35 | 57.80305 | -134.29153 | 17702 ft | 383 kts | 306° |
| 2026-04-27 20:35 | 57.81890 | -134.33162 | 17120 ft | 380 kts | 306° |
| 2026-04-27 20:36 | 57.83458 | -134.37136 | 16550 ft | 377 kts | 306° |
| 2026-04-27 20:36 | 57.84987 | -134.41019 | 15999 ft | 373 kts | 306° |
| 2026-04-27 20:36 | 57.86526 | -134.44933 | 15468 ft | 371 kts | 306° |
| 2026-04-27 20:36 | 57.88051 | -134.48817 | 14942 ft | 368 kts | 307° |
| 2026-04-27 20:37 | 57.89558 | -134.52667 | 14440 ft | 365 kts | 307° |
| 2026-04-27 20:37 | 57.91056 | -134.56501 | 13966 ft | 361 kts | 307° |
| 2026-04-27 20:37 | 57.92538 | -134.60294 | 13460 ft | 358 kts | 307° |
| 2026-04-27 20:37 | 57.94005 | -134.64063 | 12950 ft | 356 kts | 307° |
| 2026-04-27 20:38 | 57.95469 | -134.67812 | 12468 ft | 353 kts | 307° |
| 2026-04-27 20:38 | 57.96910 | -134.71514 | 12035 ft | 348 kts | 307° |
| 2026-04-27 20:38 | 57.98337 | -134.75188 | 11543 ft | 346 kts | 307° |
| 2026-04-27 20:38 | 57.99764 | -134.78806 | 11075 ft | 343 kts | 308° |
| 2026-04-27 20:39 | 58.01189 | -134.82425 | 10526 ft | 343 kts | 307° |
| 2026-04-27 20:39 | 58.02599 | -134.86046 | 10038 ft | 341 kts | 306° |
| 2026-04-27 20:39 | 58.03991 | -134.89644 | 9680 ft | 336 kts | 306° |
| 2026-04-27 20:39 | 58.05339 | -134.93146 | 9455 ft | 330 kts | 306° |
| 2026-04-27 20:40 | 58.06655 | -134.96578 | 9224 ft | 313 kts | 306° |
| 2026-04-27 20:40 | 58.07897 | -134.99825 | 8996 ft | 297 kts | 306° |
| 2026-04-27 20:40 | 58.09080 | -135.02925 | 8768 ft | 284 kts | 305° |
| 2026-04-27 20:40 | 58.10211 | -135.05894 | 8539 ft | 272 kts | 305° |
| 2026-04-27 20:41 | 58.11292 | -135.08736 | 8311 ft | 261 kts | 305° |
| 2026-04-27 20:41 | 58.12332 | -135.11474 | 8073 ft | 252 kts | 305° |
| 2026-04-27 20:41 | 58.13351 | -135.14158 | 7825 ft | 250 kts | 305° |
| 2026-04-27 20:41 | 58.14363 | -135.16826 | 7575 ft | 249 kts | 305° |
| 2026-04-27 20:42 | 58.15371 | -135.19480 | 7326 ft | 248 kts | 305° |
| 2026-04-27 20:42 | 58.16380 | -135.22084 | 7202 ft | 241 kts | 310° |
| 2026-04-27 20:42 | 58.17766 | -135.23717 | 7100 ft | 238 kts | 345° |
| 2026-04-27 20:42 | 58.19373 | -135.23423 | 6907 ft | 242 kts | 21° |
| 2026-04-27 20:43 | 58.20590 | -135.21293 | 6736 ft | 240 kts | 60° |
| 2026-04-27 20:43 | 58.20894 | -135.18258 | 6613 ft | 234 kts | 93° |
| 2026-04-27 20:43 | 58.20729 | -135.15229 | 6456 ft | 229 kts | 91° |
| 2026-04-27 20:43 | 58.20902 | -135.12245 | 6193 ft | 227 kts | 74° |
| 2026-04-27 20:44 | 58.21431 | -135.09462 | 6195 ft | 222 kts | 65° |
| 2026-04-27 20:44 | 58.22123 | -135.06850 | 6189 ft | 221 kts | 55° |
| 2026-04-27 20:44 | 58.23230 | -135.04928 | 6198 ft | 217 kts | 27° |
| 2026-04-27 20:44 | 58.24616 | -135.03787 | 6177 ft | 218 kts | 19° |
| 2026-04-27 20:45 | 58.26053 | -135.02849 | 5891 ft | 224 kts | 15° |
| 2026-04-27 20:45 | 58.27522 | -135.01969 | 5627 ft | 218 kts | 15° |
| 2026-04-27 20:45 | 58.28953 | -135.01106 | 5369 ft | 212 kts | 16° |
| 2026-04-27 20:45 | 58.30313 | -135.00275 | 5214 ft | 200 kts | 16° |
| 2026-04-27 20:46 | 58.31614 | -134.99470 | 5087 ft | 194 kts | 17° |
| 2026-04-27 20:46 | 58.32889 | -134.98674 | 4973 ft | 190 kts | 17° |
| 2026-04-27 20:46 | 58.34139 | -134.97887 | 4868 ft | 188 kts | 17° |
| 2026-04-27 20:46 | 58.35375 | -134.97105 | 4769 ft | 191 kts | 17° |
| 2026-04-27 20:47 | 58.36654 | -134.96294 | 4660 ft | 191 kts | 17° |
| 2026-04-27 20:47 | 58.37891 | -134.95508 | 4553 ft | 187 kts | 17° |
| 2026-04-27 20:47 | 58.39099 | -134.94696 | 4444 ft | 183 kts | 24° |
| 2026-04-27 20:47 | 58.39964 | -134.92990 | 4307 ft | 182 kts | 66° |
| 2026-04-27 20:48 | 58.40100 | -134.90619 | 4211 ft | 182 kts | 96° |
| 2026-04-27 20:48 | 58.39938 | -134.89050 | 4150 ft | 182 kts | 103° |
| 2026-04-27 20:48 | 58.39481 | -134.85980 | 4019 ft | 176 kts | 107° |
| 2026-04-27 20:48 | 58.39151 | -134.83763 | 3916 ft | 173 kts | 106° |
| 2026-04-27 20:49 | 58.38836 | -134.81559 | 3814 ft | 177 kts | 106° |
| 2026-04-27 20:49 | 58.38499 | -134.79189 | 3743 ft | 191 kts | 105° |
| 2026-04-27 20:49 | 58.38137 | -134.76653 | 3543 ft | 211 kts | 105° |
| 2026-04-27 20:49 | 58.37540 | -134.74033 | 3346 ft | 212 kts | 121° |
| 2026-04-27 20:50 | 58.36824 | -134.71729 | 3038 ft | 194 kts | 116° |
| 2026-04-27 20:50 | 58.36295 | -134.69394 | 2415 ft | 193 kts | 112° |
| 2026-04-27 20:50 | 58.36012 | -134.66996 | 2063 ft | 180 kts | 92° |
| 2026-04-27 20:50 | 58.36001 | -134.64587 | 1401 ft | 186 kts | 90° |
| 2026-04-27 20:51 | 58.35964 | -134.62032 | 658 ft | 196 kts | 90° |
| 2026-04-27 20:51 | 58.35779 | -134.59494 | 110 ft | 192 kts | 108° |
| 2026-04-27 20:51 | 58.35457 | -134.57323 | 29 ft | 131 kts | 103° |
| 2026-04-27 20:51 | 58.35320 | -134.56399 | 29 ft | 28 kts | 104° |
| 2026-04-27 20:52 | 58.35264 | -134.56069 | 29 ft | 16 kts | 69° |
| 2026-04-27 20:52 | 58.35281 | -134.56062 | 29 ft | 5 kts | 296° |
| 2026-04-27 20:52 | 58.35299 | -134.56215 | 29 ft | 14 kts | 284° |
| 2026-04-27 20:52 | 58.35329 | -134.56417 | 29 ft | 20 kts | 284° |
| 2026-04-27 20:53 | 58.35372 | -134.56725 | 29 ft | 27 kts | 284° |
| 2026-04-27 20:53 | 58.35420 | -134.57070 | 29 ft | 27 kts | 285° |
| 2026-04-27 20:53 | 58.35464 | -134.57393 | 29 ft | 24 kts | 285° |
| 2026-04-27 20:53 | 58.35503 | -134.57681 | 29 ft | 21 kts | 284° |
| 2026-04-27 20:54 | 58.35629 | -134.58058 | 29 ft | 15 kts | 354° |
| 2026-04-27 20:54 | 58.35688 | -134.58175 | 29 ft | 11 kts | 289° |
| 2026-04-27 20:54 | 58.35721 | -134.58287 | 29 ft | 9 kts | 329° |
| 2026-04-27 20:55 | 58.35770 | -134.58336 | 29 ft | 7 kts | 314° |
| 2026-04-27 20:55 | 58.35794 | -134.58378 | 29 ft | 5 kts | 334° |
| 2026-04-27 20:55 | 58.35835 | -134.58371 | 29 ft | 0 kts | 19° |